createdAt,value
2022-11-18T00:02:02.306Z,38.9
2022-11-18T00:07:04.552Z,42.7
2022-11-18T00:12:07.413Z,42.3
2022-11-18T00:17:09.581Z,43
2022-11-18T00:22:33.378Z,44.5
2022-11-18T00:27:35.667Z,43.2
2022-11-18T00:32:37.756Z,41.1
2022-11-18T00:37:39.976Z,44.7
2022-11-18T00:42:42.326Z,44.5
2022-11-18T00:47:44.510Z,40.3
2022-11-18T00:52:46.693Z,41.7
2022-11-18T00:57:49.067Z,41
2022-11-18T01:02:51.283Z,42.8
2022-11-18T01:07:53.582Z,45.5
2022-11-18T01:12:56.860Z,40.5
2022-11-18T01:18:00.762Z,43.9
2022-11-18T01:23:03.180Z,44.8
2022-11-18T01:28:05.612Z,46.3
2022-11-18T01:33:07.717Z,43.6
2022-11-18T01:38:10.014Z,45
2022-11-18T01:43:12.287Z,43.1
2022-11-18T01:53:17.923Z,38.3
2022-11-18T01:58:20.255Z,41.5
2022-11-18T02:03:22.429Z,46.3
2022-11-18T02:08:25.221Z,40.6
2022-11-18T02:13:27.366Z,43.5
2022-11-18T02:18:29.456Z,39.8
2022-11-18T02:23:31.666Z,40.6
2022-11-18T02:28:34.032Z,37.8
2022-11-18T02:33:36.034Z,37.3
2022-11-18T02:38:38.371Z,37.7
2022-11-18T02:43:40.680Z,33.4
2022-11-18T02:48:43.432Z,34.4
2022-11-18T02:53:45.890Z,33.9
2022-11-18T02:58:48.265Z,31.5
2022-11-18T03:03:50.570Z,29.9
2022-11-18T03:08:52.908Z,29.9
2022-11-18T03:13:55.328Z,32.5
2022-11-18T03:18:57.591Z,32
2022-11-18T03:24:00.013Z,32.8
2022-11-18T03:29:02.666Z,33.8
2022-11-18T03:34:05.146Z,35.7
2022-11-18T03:39:07.387Z,33.1
2022-11-18T03:44:09.784Z,34.9
2022-11-18T03:49:12.055Z,33.9
2022-11-18T03:54:15.182Z,37
2022-11-18T03:59:17.595Z,34.5
2022-11-18T04:04:21.183Z,33
2022-11-18T04:09:23.354Z,33.2
2022-11-18T04:14:25.626Z,33.5
2022-11-18T04:19:27.769Z,35.1
2022-11-18T04:24:29.917Z,37.1
2022-11-18T04:29:32.191Z,32.1
2022-11-18T04:34:34.355Z,29.5
2022-11-18T04:39:36.712Z,30.1
2022-11-18T04:44:38.866Z,30.6
2022-11-18T04:49:41.054Z,34
2022-11-18T04:54:43.739Z,37.3
2022-11-18T04:59:46.295Z,44
2022-11-18T05:04:48.496Z,47.5
2022-11-18T05:09:50.860Z,54.1
2022-11-18T05:14:53.259Z,52.6
2022-11-18T05:19:55.421Z,49.9
2022-11-18T05:24:57.650Z,46.1
2022-11-18T05:30:00.357Z,42
2022-11-18T05:35:02.557Z,50.2
2022-11-18T05:40:04.869Z,43.5
2022-11-18T05:45:07.068Z,37.9
2022-11-18T05:50:09.331Z,39
2022-11-18T05:55:11.540Z,36.3
2022-11-18T06:00:13.744Z,33.7
2022-11-18T06:05:15.923Z,36.4
2022-11-18T06:10:18.066Z,33.7
2022-11-18T06:15:20.177Z,35.4
2022-11-18T06:20:22.337Z,43.2
2022-11-18T06:25:24.533Z,41.8
2022-11-18T06:30:26.779Z,37.8
2022-11-18T06:35:28.908Z,31.6
2022-11-18T06:40:34.643Z,34.6
2022-11-18T06:45:37.483Z,32.9
2022-11-18T06:50:39.678Z,34.6
2022-11-18T06:55:41.833Z,30.4
2022-11-18T07:00:44.049Z,27.1
2022-11-18T07:05:46.474Z,23.9
2022-11-18T07:10:48.883Z,24.9
2022-11-18T07:15:51.085Z,24.6
2022-11-18T07:20:53.266Z,27
2022-11-18T07:25:55.485Z,31.6
2022-11-18T07:30:58.142Z,32.4
2022-11-18T07:36:00.276Z,33.5
2022-11-18T07:41:02.490Z,38.7
2022-11-18T07:46:04.644Z,39.5
2022-11-18T07:51:06.738Z,38.7
2022-11-18T07:56:09.024Z,39.8
2022-11-18T08:01:11.378Z,40.9
2022-11-18T08:06:14.128Z,38.9
2022-11-18T08:11:21.796Z,38
2022-11-18T08:16:24.835Z,38.1
2022-11-18T08:21:26.920Z,40.6
2022-11-18T08:26:29.141Z,39.9
2022-11-18T08:31:31.348Z,34.4
2022-11-18T08:36:33.570Z,31.5
2022-11-18T08:41:35.830Z,28
2022-11-18T08:46:38.145Z,29.8
2022-11-18T08:51:40.186Z,28.3
2022-11-18T08:56:42.409Z,28.4
2022-11-18T09:01:44.740Z,25.7
2022-11-18T09:06:45.780Z,25
2022-11-18T09:11:49.391Z,22.3
2022-11-18T09:16:51.646Z,21.3
2022-11-18T09:21:54.363Z,20.7
2022-11-18T09:26:56.474Z,19.9
2022-11-18T09:31:58.672Z,18.3
2022-11-18T09:37:00.773Z,18.6
2022-11-18T09:42:03.114Z,22
2022-11-18T09:47:05.252Z,18.6
2022-11-18T09:52:07.481Z,20.5
2022-11-18T09:57:09.700Z,18.9
2022-11-18T10:02:11.870Z,17.1
2022-11-18T10:07:14.623Z,15.7
2022-11-18T10:12:17.163Z,15.4
2022-11-18T10:17:19.360Z,17.3
2022-11-18T10:22:24.501Z,19.3
2022-11-18T10:27:27.102Z,19.1
2022-11-18T10:32:29.430Z,19.4
2022-11-18T10:37:52.857Z,17.7
2022-11-18T10:42:39.818Z,18.3
2022-11-18T10:47:42.014Z,20.2
2022-11-18T10:52:44.232Z,22.3
2022-11-18T10:57:46.354Z,21.6
2022-11-18T11:02:48.625Z,20.9
2022-11-18T11:07:51.057Z,17.5
2022-11-18T11:12:57.898Z,18.5
2022-11-18T11:18:00.139Z,15.7
2022-11-18T11:23:02.233Z,16.3
2022-11-18T11:33:06.520Z,18.5
2022-11-18T11:38:08.520Z,20.8
2022-11-18T11:43:10.497Z,20
2022-11-18T11:48:12.522Z,22.3
2022-11-18T11:53:14.465Z,20.5
2022-11-18T11:58:16.492Z,22.6
2022-11-18T12:03:18.518Z,23.7
2022-11-18T12:08:20.739Z,25.3
2022-11-18T12:13:22.795Z,26.5
2022-11-18T12:18:24.910Z,28.6
2022-11-18T12:23:26.845Z,30
2022-11-18T12:28:28.899Z,30.9
2022-11-18T12:33:31.020Z,31.6
2022-11-18T12:38:33.233Z,33.4
2022-11-18T12:43:35.499Z,30.7
2022-11-18T12:48:37.510Z,30.6
2022-11-18T12:53:39.639Z,25.4
2022-11-18T12:58:42.229Z,24.2
2022-11-18T13:03:44.390Z,19.7
2022-11-18T13:08:46.333Z,21.2
2022-11-18T13:13:48.221Z,21.1
2022-11-18T13:18:50.349Z,21.6
2022-11-18T13:23:56.309Z,21.6
2022-11-18T13:28:52.501Z,17.8
2022-11-18T13:33:54.523Z,16.5
2022-11-18T13:38:56.602Z,19
2022-11-18T13:49:00.810Z,17.4
2022-11-18T13:54:02.741Z,17.1
2022-11-18T13:59:17.140Z,16.6
2022-11-18T14:04:10.176Z,14.7
2022-11-18T14:09:12.224Z,15.9
2022-11-18T14:19:17.699Z,14.3
2022-11-18T14:24:21.077Z,23.8
2022-11-18T14:29:21.744Z,13.6
2022-11-18T14:34:24.313Z,13.6
2022-11-18T14:39:27.195Z,13.4
2022-11-18T14:44:29.788Z,10.9
2022-11-18T14:49:31.918Z,12.2
2022-11-18T14:54:34.466Z,13.1
2022-11-18T14:59:36.886Z,12.3
2022-11-18T15:04:38.969Z,12.1
2022-11-18T15:09:41.240Z,11.4
2022-11-18T15:14:43.300Z,12.7
2022-11-18T15:19:45.473Z,16.6
2022-11-18T15:24:47.522Z,4.6
2022-11-18T15:29:49.615Z,2.8
2022-11-18T15:34:51.770Z,3.7
2022-11-18T15:39:53.756Z,2
2022-11-18T15:44:56.094Z,2.1
2022-11-18T15:49:58.014Z,3.8
2022-11-18T15:55:02.871Z,4.8
2022-11-18T16:00:10.668Z,3.1
2022-11-18T16:05:12.920Z,2.9
2022-11-18T16:10:15.029Z,3.7
2022-11-18T16:15:17.088Z,7
2022-11-18T16:20:20.392Z,5.6
2022-11-18T16:25:22.534Z,5.9
2022-11-18T16:30:24.972Z,4.1
2022-11-18T16:35:27.333Z,4.8
2022-11-18T16:40:29.348Z,3.7
2022-11-18T16:45:31.461Z,4.3
2022-11-18T16:50:33.548Z,6.2
2022-11-18T16:55:35.582Z,5.4
2022-11-18T17:01:00.210Z,9.3
2022-11-18T17:05:40.185Z,4.9
2022-11-18T17:10:42.373Z,4.8
2022-11-18T17:15:44.825Z,5.1
2022-11-18T17:20:46.910Z,5.6
2022-11-18T17:25:49.044Z,6.1
2022-11-18T17:30:51.033Z,5.3
2022-11-18T17:35:55.140Z,9.7
2022-11-18T17:40:55.586Z,5.8
2022-11-18T17:45:58.031Z,6.2
2022-11-18T17:51:00.216Z,7.3
2022-11-18T17:56:04.017Z,7.8
2022-11-18T18:01:06.870Z,6.7
2022-11-18T18:06:09.569Z,6.1
2022-11-18T18:11:11.937Z,8.3
2022-11-18T18:16:16.128Z,5.8
2022-11-18T18:21:18.251Z,7.1
2022-11-18T18:26:20.587Z,7.2
2022-11-18T18:31:22.354Z,6.9
2022-11-18T18:36:24.426Z,7.3
2022-11-18T18:41:26.634Z,7.1
2022-11-18T18:46:28.614Z,8.8
2022-11-18T18:51:32.219Z,8.5
2022-11-18T18:56:34.286Z,8.9
2022-11-18T19:01:36.400Z,9.2
2022-11-18T19:11:47.323Z,9.6
2022-11-18T19:16:50.104Z,9.1
2022-11-18T19:21:52.096Z,10.3
2022-11-18T19:26:54.121Z,10.9
2022-11-18T19:31:56.156Z,9.9
2022-11-18T19:36:58.202Z,9.2
2022-11-18T19:42:00.257Z,8.8
2022-11-18T19:47:02.256Z,9.8
2022-11-18T19:52:04.797Z,9.3
2022-11-18T19:57:07.087Z,9.5
2022-11-18T20:02:09.337Z,9.9
2022-11-18T20:07:11.508Z,9.4
2022-11-18T20:12:14.295Z,8.4
2022-11-18T20:17:16.639Z,9.7
2022-11-18T20:22:18.714Z,9.7
2022-11-18T20:27:20.739Z,10.3
2022-11-18T20:32:22.792Z,8.6
2022-11-18T20:37:27.849Z,9.5
2022-11-18T20:42:30.337Z,10.5
2022-11-18T20:47:32.439Z,11.5
2022-11-18T20:52:34.614Z,10.1
2022-11-18T20:57:37.281Z,9.6
2022-11-18T21:02:39.233Z,13.9
2022-11-18T21:07:43.000Z,13.1
2022-11-18T21:12:44.983Z,10.3
2022-11-18T21:17:47.345Z,10.8
2022-11-18T21:22:49.528Z,10.2
2022-11-18T21:27:51.649Z,9.1
2022-11-18T21:32:53.657Z,9.4
2022-11-18T21:37:56.141Z,10.6
2022-11-18T21:42:58.340Z,10.3
2022-11-18T21:48:00.481Z,11.2
2022-11-18T21:53:02.639Z,11.6
2022-11-18T21:58:06.840Z,11.2
2022-11-18T22:03:08.999Z,9.9
2022-11-18T22:08:13.908Z,9.9
2022-11-18T22:13:15.956Z,9.6
2022-11-18T22:18:18.176Z,10.1
2022-11-18T22:23:20.231Z,11.1
2022-11-18T22:28:22.298Z,9.1
2022-11-18T22:33:25.334Z,9.4
2022-11-18T22:38:27.490Z,9.9
2022-11-18T22:43:29.480Z,9
2022-11-18T22:48:31.516Z,9.6
2022-11-18T22:53:33.609Z,9.5
2022-11-18T22:58:35.663Z,9.3
2022-11-18T23:03:37.583Z,8
2022-11-18T23:08:39.637Z,10.2
2022-11-18T23:13:41.948Z,8.1
2022-11-18T23:18:44.229Z,8.4
2022-11-18T23:23:46.290Z,8.3
2022-11-18T23:28:48.284Z,8.5
2022-11-18T23:33:50.427Z,8.8
2022-11-18T23:38:52.439Z,9.1
2022-11-18T23:43:54.448Z,9.7
2022-11-18T23:48:56.588Z,8.4
2022-11-18T23:53:58.575Z,7.8
2022-11-18T23:59:00.975Z,7.6
